Crayne, Kentucky
Current Conditions -  °F | °C
As of 6:15 AM on Friday 28 Nov 2014 (Local Time) from K5M9 Reporting Station
Clear Clear  
Wind Chill: 20°   Ceiling: Unl
Heat Index: 26°   Visibility: 7mi
Dew Point: 23°   Wind: 5mph
Humidity: 91%   Direction: 170°S
Pressure: 30.39"   Gusts: NA
Location:  37.27°N, 88.08°W
Report Text: K5M9 281215Z AUTO 17004KT 7SM CLR M04/M05 A3039 RMK AO2 T10361049
Loading
Personal Weather Stations






























Interactive Weather Map New forecast layout! Learn more

10-Day Weather Forecast

Advertisements
Track Severe Weather on mobile